Time;durP1;ratioP1;P1;durP2;ratioP2;P2;SDS_P1;SDS_P2;PMS_P1;PMS_P2;Temp;Humidity;BMP_temperature;BMP_pressure;BME280_temperature;BME280_humidity;BME280_pressure;Samples;Min_cycle;Max_cycle;Signal;HPM_P1;HPM_P2
2022/12/12 00:01:27;;;;;;;16.17;8.68;;;;;;;4.84;100.00;99723.55;1657953;86;21307;-63
2022/12/12 00:03:56;;;;;;;12.43;8.33;;;;;;;4.81;100.00;99714.83;1651089;85;20957;-67
2022/12/12 00:06:23;;;;;;;17.60;9.20;;;;;;;4.80;100.00;99742.91;1645354;85;21094;-66
2022/12/12 00:08:52;;;;;;;16.48;9.95;;;;;;;4.80;100.00;99723.06;1645540;85;21308;-62
2022/12/12 00:11:21;;;;;;;16.57;8.93;;;;;;;4.77;100.00;99716.11;1645081;85;20975;-62
2022/12/12 00:13:48;;;;;;;14.35;8.98;;;;;;;4.73;100.00;99716.91;1645348;85;21842;-64
2022/12/12 00:16:16;;;;;;;16.23;8.98;;;;;;;4.70;100.00;99719.84;1645572;87;21083;-61
2022/12/12 00:18:43;;;;;;;17.45;8.78;;;;;;;4.67;100.00;99713.69;1644996;85;21000;-62
2022/12/12 00:21:24;;;;;;;14.87;9.33;;;;;;;4.68;100.00;99723.53;1645554;85;20971;-62
2022/12/12 00:23:51;;;;;;;14.85;9.48;;;;;;;4.66;100.00;99719.00;1645779;87;21143;-62
2022/12/12 00:26:25;;;;;;;16.12;9.15;;;;;;;4.66;100.00;99717.70;1645474;87;21311;-65
2022/12/12 00:28:52;;;;;;;13.50;8.05;;;;;;;4.68;100.00;99726.11;1640700;86;21123;-62
2022/12/12 00:31:21;;;;;;;17.95;9.20;;;;;;;4.67;100.00;99721.44;1640230;87;21076;-68
2022/12/12 00:33:48;;;;;;;14.55;8.95;;;;;;;4.67;100.00;99707.23;1639790;87;21040;-63
2022/12/12 00:36:22;;;;;;;16.05;8.88;;;;;;;4.66;100.00;99693.17;1693522;83;21097;-63
2022/12/12 00:38:49;;;;;;;15.70;9.38;;;;;;;4.66;100.00;99701.76;1697069;83;21134;-63
2022/12/12 00:41:17;;;;;;;12.80;8.40;;;;;;;4.69;100.00;99694.97;1703549;84;20961;-64
2022/12/12 00:43:44;;;;;;;16.70;9.13;;;;;;;4.70;100.00;99694.02;1702898;82;20929;-61
2022/12/12 00:46:14;;;;;;;13.85;8.28;;;;;;;4.70;100.00;99691.44;1703763;84;21107;-61
2022/12/12 00:48:42;;;;;;;15.30;8.75;;;;;;;4.70;100.00;99685.44;1666845;86;21566;-61
2022/12/12 00:51:12;;;;;;;14.83;9.48;;;;;;;4.72;100.00;99679.16;1703587;82;21166;-61
2022/12/12 00:53:39;;;;;;;16.97;8.93;;;;;;;4.73;100.00;99679.96;1703468;82;21022;-66
2022/12/12 00:56:06;;;;;;;15.80;8.55;;;;;;;4.72;100.00;99674.00;1703472;82;21570;-62
2022/12/12 00:58:35;;;;;;;12.45;7.92;;;;;;;4.73;100.00;99681.25;1702953;84;20998;-62
2022/12/12 01:01:17;;;;;;;13.18;7.85;;;;;;;4.75;100.00;99682.72;1703656;82;21135;-61
2022/12/12 01:03:44;;;;;;;17.70;9.60;;;;;;;4.76;100.00;99686.11;1703083;82;21209;-62
2022/12/12 01:06:13;;;;;;;13.45;8.50;;;;;;;4.78;100.00;99686.77;1703432;82;21032;-66
2022/12/12 01:08:41;;;;;;;18.12;9.48;;;;;;;4.80;100.00;99686.91;1703511;82;21103;-62
2022/12/12 01:11:09;;;;;;;12.93;9.33;;;;;;;4.80;100.00;99693.37;1703680;82;20950;-61
2022/12/12 01:13:36;;;;;;;21.23;9.30;;;;;;;4.80;100.00;99688.69;1703212;84;21056;-62
2022/12/12 01:16:05;;;;;;;15.05;9.30;;;;;;;4.79;100.00;99689.66;1667365;84;21281;-61
2022/12/12 01:18:33;;;;;;;15.70;9.45;;;;;;;4.82;100.00;99694.52;1703027;82;20958;-61
2022/12/12 01:21:00;;;;;;;14.80;8.43;;;;;;;4.81;100.00;99670.93;1703630;82;20992;-60
2022/12/12 01:23:28;;;;;;;19.75;8.80;;;;;;;4.83;100.00;99671.59;1666686;84;21000;-65
2022/12/12 01:26:02;;;;;;;15.93;9.38;;;;;;;4.83;100.00;99669.81;1703757;82;21473;-61
2022/12/12 01:28:29;;;;;;;25.08;10.65;;;;;;;4.82;100.00;99670.79;1635402;85;21157;-61
2022/12/12 01:30:57;;;;;;;15.78;10.05;;;;;;;4.83;100.00;99665.14;1613826;88;20971;-65
2022/12/12 01:33:25;;;;;;;15.23;9.15;;;;;;;4.84;100.00;99653.83;1620761;87;20933;-62
2022/12/12 01:35:52;;;;;;;15.68;9.40;;;;;;;4.83;100.00;99671.59;1653062;86;21482;-63
2022/12/12 01:38:21;;;;;;;15.55;9.38;;;;;;;4.84;100.00;99666.74;1638596;85;21071;-61
2022/12/12 01:40:48;;;;;;;15.10;8.93;;;;;;;4.84;100.00;99671.42;1653104;86;22274;-61
2022/12/12 01:43:17;;;;;;;16.25;9.95;;;;;;;4.83;100.00;99654.32;1638090;85;21045;-61
2022/12/12 01:46:02;;;;;;;15.65;9.48;;;;;;;4.85;100.00;99655.47;1652564;86;21019;-64
2022/12/12 01:48:50;;;;;;;17.57;9.28;;;;;;;4.86;100.00;99673.37;1638812;86;21069;-61
2022/12/12 01:51:20;;;;;;;16.27;8.98;;;;;;;4.87;100.00;99638.02;1667042;86;20996;-61
2022/12/12 01:53:48;;;;;;;19.05;8.95;;;;;;;4.85;100.00;99652.89;1653028;86;21278;-61
2022/12/12 01:56:17;;;;;;;18.87;10.50;;;;;;;4.85;100.00;99633.03;1639169;86;21021;-61
2022/12/12 01:58:47;;;;;;;16.85;9.60;;;;;;;4.83;100.00;99645.77;1667068;86;21055;-61
2022/12/12 02:01:15;;;;;;;15.80;9.50;;;;;;;4.84;100.00;99643.02;1652427;85;21081;-61
2022/12/12 02:03:42;;;;;;;17.48;10.43;;;;;;;4.84;100.00;99639.14;1643629;86;21008;-61
2022/12/12 02:06:13;;;;;;;19.67;9.00;;;;;;;4.84;100.00;99631.39;1667394;86;21288;-62
2022/12/12 02:08:40;;;;;;;16.70;9.70;;;;;;;4.84;100.00;99629.30;1626351;86;21482;-64
2022/12/12 02:11:08;;;;;;;15.40;9.25;;;;;;;4.81;100.00;99629.62;1638556;87;21143;-62
2022/12/12 02:13:35;;;;;;;18.85;9.45;;;;;;;4.83;100.00;99635.44;1667623;84;20893;-61
2022/12/12 02:16:46;;;;;;;16.73;10.15;;;;;;;4.82;100.00;99622.22;1626703;86;21091;-61
2022/12/12 02:19:33;;;;;;;17.17;9.00;;;;;;;4.82;100.00;99632.55;1640984;87;21287;-61
2022/12/12 02:22:11;;;;;;;16.30;9.70;;;;;;;4.81;100.00;99616.70;1643898;87;21486;-63
2022/12/12 02:25:01;;;;;;;14.20;9.43;;;;;;;4.80;100.00;99616.39;1703644;83;20989;-61
2022/12/12 02:27:51;;;;;;;15.65;9.63;;;;;;;4.78;100.00;99622.22;1702881;82;21731;-65
2022/12/12 02:30:24;;;;;;;19.23;9.25;;;;;;;4.77;100.00;99626.58;1703956;82;21088;-61
2022/12/12 02:33:11;;;;;;;16.07;9.43;;;;;;;4.77;100.00;99617.55;1704128;84;21133;-66
2022/12/12 02:36:03;;;;;;;16.73;9.40;;;;;;;4.78;100.00;99622.22;1703535;82;21075;-61
2022/12/12 02:39:04;;;;;;;16.27;10.20;;;;;;;4.76;100.00;99617.20;1703582;83;20961;-63
2022/12/12 02:41:41;;;;;;;18.25;9.60;;;;;;;4.76;100.00;99621.56;1704079;84;21327;-61
2022/12/12 02:44:29;;;;;;;14.83;8.25;;;;;;;4.75;100.00;99616.08;1703040;82;21022;-61
2022/12/12 02:47:10;;;;;;;15.70;9.83;;;;;;;4.76;100.00;99608.65;1703548;83;21247;-60
2022/12/12 02:49:52;;;;;;;;;;;;;;;4.76;100.00;99608.16;1704331;84;21509;-62
2022/12/12 02:52:19;;;;;;;17.25;9.28;;;;;;;4.74;100.00;99606.24;1704121;82;20158;-61
2022/12/12 02:54:47;;;;;;;15.77;9.13;;;;;;;4.75;100.00;99609.63;1703871;82;20926;-62
2022/12/12 02:57:23;;;;;;;13.75;8.43;;;;;;;4.74;100.00;99608.02;1702872;82;21487;-66
2022/12/12 03:00:05;;;;;;;18.65;8.38;;;;;;;4.72;100.00;99625.43;1703852;84;21221;-61
2022/12/12 03:09:17;;;;;;;15.10;8.63;;;;;;;4.71;100.00;99622.53;1714359;83;21522;-61
2022/12/12 03:11:59;;;;;;;18.20;8.40;;;;;;;4.69;100.00;99615.42;1713650;83;21000;-60
2022/12/12 03:14:30;;;;;;;14.28;8.10;;;;;;;4.68;100.00;99618.98;1714890;83;21566;-60
2022/12/12 03:17:12;;;;;;;13.90;8.47;;;;;;;4.70;100.00;99606.70;1714555;83;21079;-61
2022/12/12 03:19:47;;;;;;;14.47;8.00;;;;;;;4.69;100.00;99602.52;1714273;83;21411;-61
2022/12/12 03:22:24;;;;;;;15.75;7.97;;;;;;;4.67;100.00;99603.98;1713964;83;21076;-61
2022/12/12 03:25:16;;;;;;;17.95;10.80;;;;;;;4.66;100.00;99593.34;1713385;83;20960;-66
2022/12/12 03:27:55;;;;;;;15.08;8.68;;;;;;;4.67;100.00;99594.94;1714045;83;21192;-62
2022/12/12 03:30:22;;;;;;;19.42;9.70;;;;;;;4.66;100.00;99598.95;1713949;83;20992;-65
2022/12/12 03:32:57;;;;;;;17.77;9.75;;;;;;;4.66;100.00;99611.86;1713318;83;21186;-62
2022/12/12 03:35:34;;;;;;;16.75;9.05;;;;;;;4.67;100.00;99611.72;1714564;83;21008;-60
2022/12/12 03:38:09;;;;;;;16.45;8.68;;;;;;;4.69;100.00;99618.00;1714198;82;21027;-67
2022/12/12 03:40:46;;;;;;;15.53;9.43;;;;;;;4.71;100.00;99617.38;1708043;83;21324;-63
2022/12/12 03:43:21;;;;;;;14.90;9.50;;;;;;;4.72;100.00;99609.45;1714047;83;21081;-63
2022/12/12 03:46:05;;;;;;;16.07;9.53;;;;;;;4.72;100.00;99615.91;1713610;83;20977;-63
2022/12/12 03:48:42;;;;;;;15.72;9.25;;;;;;;4.73;100.00;99606.38;1714024;83;21103;-63
2022/12/12 03:51:28;;;;;;;16.23;9.25;;;;;;;4.71;100.00;99614.79;1713729;83;21021;-65
2022/12/12 03:54:09;;;;;;;19.02;10.58;;;;;;;4.69;100.00;99607.19;1713791;83;21971;-63
2022/12/12 03:56:47;;;;;;;15.53;10.13;;;;;;;4.69;100.00;99605.09;1714098;83;21495;-67
2022/12/12 03:59:22;;;;;;;18.70;9.53;;;;;;;4.67;100.00;99592.36;1691067;83;20961;-66
2022/12/12 04:01:54;;;;;;;17.55;9.78;;;;;;;4.64;100.00;99602.52;1714103;83;21008;-64
2022/12/12 04:04:29;;;;;;;18.05;10.10;;;;;;;4.67;100.00;99591.55;1713302;83;21088;-68
2022/12/12 04:07:05;;;;;;;17.98;10.10;;;;;;;4.65;100.00;99600.73;1713737;83;21245;-63
2022/12/12 04:13:00;;;;;;;16.00;10.45;;;;;;;4.63;100.00;99594.45;1714048;83;21557;-62
2022/12/12 04:15:51;;;;;;;18.98;10.05;;;;;;;4.63;100.00;99592.36;1689936;83;21076;-63
2022/12/12 04:18:38;;;;;;;19.23;9.80;;;;;;;4.62;100.00;99596.72;1714347;83;20921;-63
2022/12/12 04:24:29;;;;;;;18.37;10.72;;;;;;;4.74;100.00;99596.40;1714132;82;21069;-65
2022/12/12 04:27:10;;;;;;;17.02;10.32;;;;;;;4.71;100.00;99594.13;1705191;83;20918;-60
2022/12/12 04:29:42;;;;;;;16.37;8.73;;;;;;;4.66;100.00;99595.08;1714657;83;20934;-61
2022/12/12 04:32:15;;;;;;;18.27;9.00;;;;;;;4.63;100.00;99598.33;1714345;83;21076;-61
2022/12/12 04:35:11;;;;;;;16.77;9.60;;;;;;;4.63;100.00;99589.78;1713843;83;21151;-60
2022/12/12 04:37:47;;;;;;;14.33;8.73;;;;;;;4.66;100.00;99595.08;1685006;85;21689;-60
2022/12/12 04:40:20;;;;;;;16.50;9.35;;;;;;;4.65;100.00;99594.28;1685519;85;21086;-60
2022/12/12 04:42:55;;;;;;;15.90;9.55;;;;;;;4.62;100.00;99598.47;1684916;85;21093;-60
2022/12/12 04:45:26;;;;;;;14.20;8.08;;;;;;;4.59;100.00;99597.03;1684502;85;20980;-61
2022/12/12 04:47:53;;;;;;;14.70;9.48;;;;;;;4.63;100.00;99602.20;1685095;85;21216;-61
2022/12/12 04:50:22;;;;;;;19.52;9.65;;;;;;;4.59;100.00;99601.39;1685338;85;21016;-60
2022/12/12 04:52:49;;;;;;;17.90;9.58;;;;;;;4.58;100.00;99586.39;1685471;84;21025;-61
2022/12/12 04:55:28;;;;;;;19.32;8.75;;;;;;;4.60;100.00;99573.31;1684792;85;21028;-61
2022/12/12 04:57:56;;;;;;;17.48;9.28;;;;;;;4.59;100.00;99585.42;1685730;85;21040;-60
2022/12/12 05:00:23;;;;;;;19.90;9.83;;;;;;;4.60;100.00;99589.61;1687012;83;22266;-62
2022/12/12 05:03:14;;;;;;;15.80;9.98;;;;;;;4.60;100.00;99583.64;1710937;83;21012;-66
2022/12/12 05:05:49;;;;;;;18.62;8.75;;;;;;;4.61;100.00;99580.89;1631290;85;21043;-63
2022/12/12 05:08:32;;;;;;;16.62;8.98;;;;;;;4.60;100.00;99575.41;1676813;85;21019;-62
2022/12/12 05:11:01;;;;;;;19.90;9.33;;;;;;;4.60;100.00;99584.93;1640814;85;21094;-60
2022/12/12 05:13:35;;;;;;;16.35;9.43;;;;;;;4.61;100.00;99576.21;1667773;85;21238;-60
2022/12/12 05:16:22;;;;;;;17.35;8.93;;;;;;;4.62;100.00;99585.56;1666584;85;21019;-60
2022/12/12 05:18:49;;;;;;;17.25;11.55;;;;;;;4.61;100.00;99586.05;1668718;85;21548;-61
2022/12/12 05:21:17;;;;;;;20.17;10.65;;;;;;;4.61;100.00;99589.12;1665571;85;21102;-62
2022/12/12 05:23:44;;;;;;;17.65;8.43;;;;;;;4.61;100.00;99579.59;1676937;85;21026;-61
2022/12/12 05:26:23;;;;;;;15.30;9.65;;;;;;;4.62;100.00;99585.56;1677084;85;21155;-66
2022/12/12 05:28:50;;;;;;;19.87;10.47;;;;;;;4.67;100.00;99595.43;1673549;85;21078;-62
2022/12/12 05:31:17;;;;;;;15.68;9.65;;;;;;;4.67;100.00;99598.01;1667736;85;22304;-61
2022/12/12 05:33:45;;;;;;;17.90;9.15;;;;;;;4.63;100.00;99591.88;1665586;85;21007;-61
2022/12/12 05:36:13;;;;;;;17.75;9.03;;;;;;;4.60;100.00;99589.61;1665650;85;21031;-65
2022/12/12 05:38:40;;;;;;;17.55;10.60;;;;;;;4.59;100.00;99585.42;1666500;85;21794;-60
2022/12/12 05:41:08;;;;;;;18.48;9.55;;;;;;;4.59;100.00;99589.29;1664939;85;21042;-61
2022/12/12 05:43:35;;;;;;;15.05;9.08;;;;;;;4.59;100.00;99585.42;1676024;84;21050;-63
2022/12/12 05:46:05;;;;;;;20.02;10.82;;;;;;;4.61;100.00;99591.21;1663662;85;21039;-62
2022/12/12 05:48:32;;;;;;;15.45;9.25;;;;;;;4.62;100.00;99597.17;1663649;85;21569;-64
2022/12/12 05:51:02;;;;;;;18.52;9.88;;;;;;;4.60;100.00;99591.38;1667425;85;21521;-60
2022/12/12 05:53:30;;;;;;;16.45;10.80;;;;;;;4.56;100.00;99588.80;1664354;85;21063;-61
2022/12/12 05:55:57;;;;;;;20.43;10.45;;;;;;;4.49;100.00;99597.66;1665641;85;21039;-61
2022/12/12 05:58:25;;;;;;;16.95;9.63;;;;;;;4.51;100.00;99594.45;1664364;85;21099;-62
2022/12/12 06:00:53;;;;;;;17.10;9.50;;;;;;;4.51;100.00;99597.48;1663130;85;21015;-60
2022/12/12 06:03:21;;;;;;;17.92;9.28;;;;;;;4.51;100.00;99595.74;1668923;85;21153;-61
2022/12/12 06:05:48;;;;;;;20.68;10.72;;;;;;;4.52;100.00;99589.60;1683164;83;21541;-61
2022/12/12 06:08:16;;;;;;;18.77;10.82;;;;;;;4.54;100.00;99587.66;1677773;84;21368;-62
2022/12/12 06:10:44;;;;;;;16.70;10.32;;;;;;;4.55;100.00;99590.58;1679545;84;21021;-60
2022/12/12 06:13:12;;;;;;;15.35;8.55;;;;;;;4.57;100.00;99586.05;1680396;84;21158;-60
2022/12/12 06:15:41;;;;;;;14.87;8.90;;;;;;;4.58;100.00;99588.97;1682160;84;21139;-60
2022/12/12 06:18:08;;;;;;;19.17;11.00;;;;;;;4.60;100.00;99582.35;1692729;84;21033;-61
2022/12/12 06:20:37;;;;;;;18.52;11.08;;;;;;;4.59;100.00;99572.52;1694319;84;21445;-63
2022/12/12 06:23:04;;;;;;;20.25;10.95;;;;;;;4.59;100.00;99569.94;1694464;84;21485;-65
2022/12/12 06:25:32;;;;;;;21.35;10.98;;;;;;;4.62;100.00;99584.27;1688576;83;21054;-65
2022/12/12 06:27:59;;;;;;;17.92;10.65;;;;;;;4.64;100.00;99576.70;1690102;84;21254;-66
2022/12/12 06:30:27;;;;;;;15.05;9.78;;;;;;;4.67;100.00;99588.97;1688944;84;21002;-67
2022/12/12 06:32:54;;;;;;;18.17;9.95;;;;;;;4.68;100.00;99596.55;1691869;84;21015;-67
2022/12/12 06:35:21;;;;;;;21.93;11.08;;;;;;;4.69;100.00;99589.11;1692545;84;21057;-67
2022/12/12 06:37:48;;;;;;;18.55;9.58;;;;;;;4.69;100.00;99590.41;1693093;84;21117;-67
2022/12/12 06:40:16;;;;;;;17.50;9.43;;;;;;;4.72;100.00;99584.92;1687876;84;21146;-69
2022/12/12 06:42:44;;;;;;;16.05;9.18;;;;;;;4.75;100.00;99599.30;1691376;84;21805;-66
2022/12/12 06:45:12;;;;;;;17.62;9.25;;;;;;;4.81;100.00;99580.56;1693167;84;21528;-69
2022/12/12 06:47:40;;;;;;;18.65;8.75;;;;;;;4.77;100.00;99581.39;1692881;84;21083;-67
2022/12/12 06:50:08;;;;;;;23.35;11.38;;;;;;;4.77;100.00;99597.34;1693178;84;20951;-68
2022/12/12 06:52:36;;;;;;;25.50;12.43;;;;;;;4.75;100.00;99597.52;1691292;84;21136;-69
2022/12/12 06:55:04;;;;;;;17.75;10.68;;;;;;;4.72;100.00;99584.13;1694556;84;21018;-68
2022/12/12 06:57:32;;;;;;;16.87;9.65;;;;;;;4.73;100.00;99592.19;1694261;84;20982;-68
2022/12/12 06:59:59;;;;;;;17.77;9.10;;;;;;;4.68;100.00;99582.34;1694603;84;21106;-68
2022/12/12 07:02:27;;;;;;;16.20;10.03;;;;;;;4.67;100.00;99583.81;1694710;84;21162;-70
2022/12/12 07:04:55;;;;;;;21.12;9.63;;;;;;;4.68;100.00;99597.03;1694273;84;21541;-69
2022/12/12 07:07:22;;;;;;;16.95;9.83;;;;;;;4.66;100.00;99589.46;1691673;83;21080;-68
2022/12/12 07:09:49;;;;;;;16.15;8.55;;;;;;;4.68;100.00;99589.29;1645295;87;21506;-68
2022/12/12 07:12:16;;;;;;;17.32;9.35;;;;;;;4.68;100.00;99572.51;1645071;87;21541;-69
2022/12/12 07:14:44;;;;;;;16.90;9.65;;;;;;;4.68;100.00;99570.73;1654265;85;21074;-70
2022/12/12 07:17:12;;;;;;;16.90;9.33;;;;;;;4.69;100.00;99574.91;1671910;85;22312;-69
2022/12/12 07:19:40;;;;;;;16.45;8.63;;;;;;;4.72;100.00;99560.40;1672377;85;20997;-67
2022/12/12 07:22:07;;;;;;;18.17;9.80;;;;;;;4.76;100.00;99564.27;1672648;85;21461;-67
2022/12/12 07:24:35;;;;;;;18.27;10.40;;;;;;;4.78;100.00;99567.51;1673081;85;21494;-69
2022/12/12 07:27:02;;;;;;;19.87;10.75;;;;;;;4.78;100.00;99565.41;1671681;85;21798;-67
2022/12/12 07:29:30;;;;;;;17.48;8.98;;;;;;;4.82;100.00;99559.76;1647427;85;22183;-67
2022/12/12 07:32:17;;;;;;;16.77;9.27;;;;;;;4.84;100.00;99568.62;1672519;85;21426;-67
2022/12/12 07:34:44;;;;;;;14.87;10.00;;;;;;;4.89;100.00;99561.21;1706098;83;21507;-67
2022/12/12 07:37:14;;;;;;;16.00;8.60;;;;;;;4.95;100.00;99570.87;1706914;83;21086;-67
2022/12/12 07:39:42;;;;;;;14.68;8.88;;;;;;;5.00;100.00;99563.91;1707094;84;21577;-67
2022/12/12 07:42:09;;;;;;;16.10;10.10;;;;;;;5.04;100.00;99567.33;1707427;84;21314;-67
2022/12/12 07:44:37;;;;;;;15.20;9.50;;;;;;;5.08;100.00;99558.27;1669395;85;21000;-67
2022/12/12 07:47:05;;;;;;;14.43;9.05;;;;;;;5.09;100.00;99570.21;1670628;85;21094;-65
2022/12/12 07:49:33;;;;;;;16.80;8.90;;;;;;;5.11;100.00;99564.41;1707218;84;21110;-64
2022/12/12 07:52:00;;;;;;;17.90;9.83;;;;;;;5.24;100.00;99551.45;1707806;84;21603;-64
2022/12/12 07:54:27;;;;;;;18.33;10.00;;;;;;;5.26;100.00;99563.70;1706438;84;21151;-67
2022/12/12 07:56:54;;;;;;;18.63;10.10;;;;;;;5.28;100.00;99560.48;1707138;84;21711;-64
2022/12/12 07:59:22;;;;;;;15.43;8.67;;;;;;;5.37;100.00;99556.89;1707167;84;21289;-65
2022/12/12 08:01:49;;;;;;;17.50;9.20;;;;;;;5.43;100.00;99554.95;1697025;84;21207;-65
2022/12/12 08:04:17;;;;;;;13.93;8.83;;;;;;;5.46;100.00;99555.91;1670588;84;21105;-67
2022/12/12 08:06:44;;;;;;;18.43;9.80;;;;;;;5.53;100.00;99553.44;1678398;84;21838;-66
2022/12/12 08:09:11;;;;;;;15.73;9.90;;;;;;;5.57;100.00;99545.70;1706593;84;21315;-65
2022/12/12 08:11:39;;;;;;;20.57;9.83;;;;;;;5.62;100.00;99547.28;1706498;84;21191;-65
2022/12/12 08:14:07;;;;;;;14.93;8.87;;;;;;;5.65;100.00;99537.09;1706694;84;21787;-65
2022/12/12 08:16:35;;;;;;;18.30;9.70;;;;;;;5.65;100.00;99542.27;1706134;84;21172;-67
2022/12/12 08:19:02;;;;;;;16.37;9.83;;;;;;;5.67;100.00;99528.67;1707086;84;21794;-65
2022/12/12 08:21:30;;;;;;;17.13;9.40;;;;;;;5.67;100.00;99532.06;1707303;84;21227;-65
2022/12/12 08:23:59;;;;;;;15.00;9.50;;;;;;;5.67;100.00;99524.30;1707271;84;21170;-64
2022/12/12 08:26:26;;;;;;;17.23;10.97;;;;;;;5.67;100.00;99523.01;1706379;84;21326;-69
2022/12/12 08:28:56;;;;;;;17.57;9.57;;;;;;;5.69;100.00;99522.86;1706509;84;21153;-65
2022/12/12 08:31:25;;;;;;;16.57;9.83;;;;;;;5.66;100.00;99515.44;1706763;84;21153;-65
2022/12/12 08:33:52;;;;;;;17.30;9.20;;;;;;;5.65;100.00;99517.70;1713962;83;21291;-65
2022/12/12 08:36:21;;;;;;;18.57;9.27;;;;;;;5.63;100.00;99511.39;1719233;83;21786;-65
2022/12/12 08:38:49;;;;;;;17.43;8.80;;;;;;;5.64;100.00;99514.78;1718769;83;21463;-66
2022/12/12 08:41:17;;;;;;;19.23;8.97;;;;;;;5.63;100.00;99501.55;1719950;83;21675;-65
2022/12/12 08:43:44;;;;;;;13.33;8.23;;;;;;;5.61;100.00;99513.36;1719779;83;22139;-65
2022/12/12 08:46:13;;;;;;;16.70;8.77;;;;;;;5.61;100.00;99514.16;1719102;83;21784;-66
2022/12/12 08:48:40;;;;;;;16.33;8.83;;;;;;;5.57;100.00;99505.14;1718566;83;21329;-66
2022/12/12 08:51:08;;;;;;;13.37;8.37;;;;;;;5.55;100.00;99507.06;1719210;83;21243;-65
2022/12/12 08:53:36;;;;;;;17.80;9.40;;;;;;;5.54;100.00;99494.33;1720204;83;21210;-65
2022/12/12 08:56:05;;;;;;;14.70;8.37;;;;;;;5.54;100.00;99493.83;1718650;83;21307;-67
2022/12/12 08:58:32;;;;;;;16.23;7.70;;;;;;;5.55;100.00;99502.39;1719565;83;21246;-68
2022/12/12 09:00:59;;;;;;;16.70;9.27;;;;;;;5.55;100.00;99490.76;1719876;83;21769;-65
2022/12/12 09:03:27;;;;;;;12.00;7.37;;;;;;;5.57;100.00;99496.58;1719539;83;21229;-65
2022/12/12 09:05:55;;;;;;;15.53;8.90;;;;;;;5.60;100.00;99505.27;1718776;83;21021;-66
2022/12/12 09:08:25;;;;;;;15.97;9.47;;;;;;;5.57;100.00;99496.58;1719500;83;40239;-65
2022/12/12 09:10:52;;;;;;;18.47;9.23;;;;;;;5.64;100.00;99497.48;1719099;83;21272;-66
2022/12/12 09:13:19;;;;;;;17.20;9.63;;;;;;;5.61;100.00;99503.02;1719446;83;21232;-65
2022/12/12 09:15:51;;;;;;;16.07;8.80;;;;;;;5.61;100.00;99487.02;1719847;83;21399;-70
2022/12/12 09:18:19;;;;;;;;;;;;;;;5.59;100.00;99485.07;1721804;83;22249;-66
2022/12/12 09:20:52;;;;;;;16.47;8.20;;;;;;;5.56;100.00;99482.82;1719313;83;21149;-69
2022/12/12 09:23:21;;;;;;;19.00;8.87;;;;;;;5.52;100.00;99478.97;1719623;83;22743;-67
2022/12/12 09:25:48;;;;;;;17.50;8.73;;;;;;;5.42;100.00;99478.84;1719030;83;21240;-67
2022/12/12 09:28:17;;;;;;;21.27;9.83;;;;;;;5.34;100.00;99471.94;1719164;83;21915;-69
2022/12/12 09:30:44;;;;;;;16.95;9.98;;;;;;;5.29;100.00;99476.81;1719752;83;21224;-67
2022/12/12 09:33:12;;;;;;;15.33;9.57;;;;;;;5.26;100.00;99473.27;1716983;83;22453;-68
2022/12/12 09:35:40;;;;;;;16.77;9.25;;;;;;;5.21;100.00;99478.14;1697957;84;21454;-68
2022/12/12 09:38:07;;;;;;;15.08;9.53;;;;;;;5.15;100.00;99465.88;1699141;84;21070;-67
2022/12/12 09:41:01;;;;;;;16.70;10.07;;;;;;;5.08;100.00;99469.16;1699038;84;20912;-72
2022/12/12 09:43:43;;;;;;;15.90;8.40;;;;;;;5.03;100.00;99467.53;1699597;84;21778;-69
2022/12/12 09:46:36;;;;;;;17.67;9.93;;;;;;;4.97;100.00;99473.88;1698310;84;21107;-70
2022/12/12 09:49:17;;;;;;;15.47;8.20;;;;;;;4.95;100.00;99465.47;1698986;84;21863;-70
2022/12/12 09:51:46;;;;;;;16.97;8.75;;;;;;;4.92;100.00;99469.67;1699633;84;21236;-68
2022/12/12 09:54:19;;;;;;;14.40;8.25;;;;;;;4.89;100.00;99468.25;1698511;84;21004;-68
2022/12/12 09:56:54;;;;;;;13.58;8.25;;;;;;;4.88;100.00;99457.58;1699323;84;21436;-69
2022/12/12 09:59:42;;;;;;;15.13;8.23;;;;;;;4.90;100.00;99463.88;1698897;84;21145;-70
2022/12/12 10:02:39;;;;;;;16.12;8.75;;;;;;;4.91;100.00;99452.08;1699037;84;21170;-70
2022/12/12 10:05:29;;;;;;;14.95;8.55;;;;;;;4.94;100.00;99460.80;1699777;84;20984;-69
2022/12/12 10:08:08;;;;;;;16.42;9.13;;;;;;;4.96;100.00;99451.09;1699377;84;21305;-69
2022/12/12 10:10:45;;;;;;;15.48;8.08;;;;;;;4.97;100.00;99446.27;1699793;84;21494;-69
2022/12/12 10:13:20;;;;;;;17.35;8.63;;;;;;;4.96;100.00;99443.34;1698729;84;21831;-71
2022/12/12 10:15:51;;;;;;;16.07;9.65;;;;;;;4.96;100.00;99449.80;1699440;84;21513;-70
2022/12/12 10:18:28;;;;;;;15.85;9.90;;;;;;;5.02;100.00;99443.17;1698365;84;20909;-70
2022/12/12 10:20:58;;;;;;;18.33;9.57;;;;;;;5.05;100.00;99433.31;1698424;84;21034;-70
2022/12/12 10:23:49;;;;;;;14.63;8.40;;;;;;;5.08;100.00;99433.48;1699525;84;21249;-70
2022/12/12 10:26:29;;;;;;;14.85;9.28;;;;;;;5.10;100.00;99436.69;1699050;84;21913;-71
2022/12/12 10:29:13;;;;;;;13.13;8.73;;;;;;;5.15;100.00;99443.44;1699278;84;21367;-70
2022/12/12 10:31:57;;;;;;;18.40;9.53;;;;;;;5.19;100.00;99438.73;1698497;84;20976;-69
2022/12/12 10:34:39;;;;;;;13.75;8.63;;;;;;;5.23;100.00;99438.75;1708127;83;21315;-69
2022/12/12 10:37:35;;;;;;;13.60;8.88;;;;;;;5.23;100.00;99429.70;1720145;83;20959;-69
2022/12/12 10:40:27;;;;;;;16.20;10.32;;;;;;;5.27;100.00;99433.56;1719714;83;21479;-69
2022/12/12 10:43:19;;;;;;;14.38;9.45;;;;;;;5.30;100.00;99422.86;1718935;83;21019;-69
2022/12/12 10:46:10;;;;;;;18.33;8.90;;;;;;;5.33;100.00;99427.20;1719740;83;21176;-68
2022/12/12 10:48:39;;;;;;;16.90;8.78;;;;;;;5.32;100.00;99423.52;1719688;83;21756;-68
2022/12/12 10:51:11;;;;;;;12.10;8.10;;;;;;;5.32;100.00;99435.14;1720468;83;21544;-68
2022/12/12 10:53:39;;;;;;;14.47;8.33;;;;;;;5.32;100.00;99425.61;1720785;83;21531;-67
2022/12/12 10:56:10;;;;;;;17.27;9.57;;;;;;;5.31;100.00;99410.28;1720085;83;21497;-69
2022/12/12 10:58:43;;;;;;;15.90;9.97;;;;;;;5.30;100.00;99430.61;1719669;83;21677;-67
2022/12/12 11:01:19;;;;;;;18.00;10.48;;;;;;;5.29;100.00;99412.22;1720462;83;21162;-68
2022/12/12 11:03:48;;;;;;;20.43;10.10;;;;;;;5.29;100.00;99419.97;1696688;83;21006;-69
2022/12/12 11:06:27;;;;;;;17.82;9.30;;;;;;;5.27;100.00;99424.52;1720199;83;21411;-68
2022/12/12 11:09:01;;;;;;;16.97;10.03;;;;;;;5.29;100.00;99416.89;1718882;83;21014;-67
2022/12/12 11:11:29;;;;;;;19.43;10.27;;;;;;;5.29;100.00;99419.97;1719764;83;21238;-66
2022/12/12 11:13:59;;;;;;;17.30;10.05;;;;;;;5.28;100.00;99417.08;1719305;83;21750;-66
2022/12/12 11:16:41;;;;;;;19.43;9.50;;;;;;;5.27;100.00;99426.61;1720292;82;22051;-65
2022/12/12 11:19:22;;;;;;;15.70;10.07;;;;;;;5.26;100.00;99419.81;1720069;83;21238;-66
2022/12/12 11:21:49;;;;;;;20.03;11.13;;;;;;;5.21;100.00;99416.14;1720041;83;21532;-67
2022/12/12 11:24:20;;;;;;;16.83;11.13;;;;;;;5.18;100.00;99412.59;1719539;83;21656;-68
2022/12/12 11:26:55;;;;;;;16.15;10.00;;;;;;;5.13;100.00;99428.11;1695585;83;21702;-68
2022/12/12 11:29:34;;;;;;;17.70;10.47;;;;;;;5.10;100.00;99418.11;1718761;83;21487;-68
2022/12/12 11:32:01;;;;;;;17.48;9.00;;;;;;;5.07;100.00;99415.05;1718076;83;21265;-73
2022/12/12 11:34:29;;;;;;;16.47;9.40;;;;;;;5.05;100.00;99416.53;1718203;83;20908;-73
2022/12/12 11:36:57;;;;;;;18.60;9.37;;;;;;;5.02;100.00;99410.40;1717604;83;21032;-74
2022/12/12 11:39:29;;;;;;;19.07;10.78;;;;;;;5.02;100.00;99403.94;1717726;83;21254;-71
2022/12/12 11:42:14;;;;;;;18.95;10.25;;;;;;;5.01;100.00;99408.80;1718082;83;20911;-73
2022/12/12 11:44:42;;;;;;;18.05;9.65;;;;;;;4.96;100.00;99405.89;1717472;83;21369;-68
2022/12/12 11:47:25;;;;;;;19.52;11.10;;;;;;;4.92;100.00;99398.16;1717965;83;21057;-72
2022/12/12 11:49:57;;;;;;;14.90;10.72;;;;;;;4.90;100.00;99431.60;1718347;83;21134;-73
2022/12/12 11:52:31;;;;;;;16.95;10.80;;;;;;;4.90;100.00;99409.66;1717899;82;21028;-67
2022/12/12 11:54:59;;;;;;;22.87;11.07;;;;;;;4.85;100.00;99404.99;1718503;83;21109;-71
2022/12/12 11:57:41;;;;;;;17.40;10.60;;;;;;;4.87;100.00;99415.95;1718272;83;22607;-70
2022/12/12 12:00:21;;;;;;;19.23;11.60;;;;;;;4.86;100.00;99422.09;1716462;82;21407;-67
2022/12/12 12:03:12;;;;;;;18.85;11.12;;;;;;;4.86;100.00;99407.89;1718158;83;20984;-68